sensor_id;sensor_type;location;lat;lon;timestamp;P1;durP1;ratioP1;P2;durP2;ratioP2
16531;SDS011;66872;63.142;14.482;2023-02-02T00:01:23;0.50;;;0.50;;
16531;SDS011;66872;63.142;14.482;2023-02-02T00:03:50;0.50;;;0.50;;
16531;SDS011;66872;63.142;14.482;2023-02-02T00:06:16;0.30;;;0.30;;
16531;SDS011;66872;63.142;14.482;2023-02-02T00:08:43;0.57;;;0.57;;
16531;SDS011;66872;63.142;14.482;2023-02-02T00:11:09;0.40;;;0.40;;
16531;SDS011;66872;63.142;14.482;2023-02-02T00:13:35;0.50;;;0.50;;
16531;SDS011;66872;63.142;14.482;2023-02-02T00:16:20;0.50;;;0.50;;
16531;SDS011;66872;63.142;14.482;2023-02-02T00:18:45;0.60;;;0.60;;
16531;SDS011;66872;63.142;14.482;2023-02-02T00:21:13;0.52;;;0.50;;
16531;SDS011;66872;63.142;14.482;2023-02-02T00:23:38;0.43;;;0.43;;
16531;SDS011;66872;63.142;14.482;2023-02-02T00:26:04;0.40;;;0.40;;
16531;SDS011;66872;63.142;14.482;2023-02-02T00:28:29;0.40;;;0.40;;
16531;SDS011;66872;63.142;14.482;2023-02-02T00:30:55;0.40;;;0.40;;
16531;SDS011;66872;63.142;14.482;2023-02-02T00:33:21;0.50;;;0.50;;
16531;SDS011;66872;63.142;14.482;2023-02-02T00:35:46;0.43;;;0.43;;
16531;SDS011;66872;63.142;14.482;2023-02-02T00:38:12;0.43;;;0.43;;
16531;SDS011;66872;63.142;14.482;2023-02-02T00:40:37;0.40;;;0.40;;
16531;SDS011;66872;63.142;14.482;2023-02-02T00:43:03;0.30;;;0.30;;
16531;SDS011;66872;63.142;14.482;2023-02-02T00:45:29;0.50;;;0.50;;
16531;SDS011;66872;63.142;14.482;2023-02-02T00:47:55;0.30;;;0.30;;
16531;SDS011;66872;63.142;14.482;2023-02-02T00:50:20;0.38;;;0.38;;
16531;SDS011;66872;63.142;14.482;2023-02-02T00:52:47;0.57;;;0.57;;
16531;SDS011;66872;63.142;14.482;2023-02-02T00:55:13;0.30;;;0.30;;
16531;SDS011;66872;63.142;14.482;2023-02-02T00:57:39;0.50;;;0.50;;
16531;SDS011;66872;63.142;14.482;2023-02-02T01:00:06;0.70;;;0.50;;
16531;SDS011;66872;63.142;14.482;2023-02-02T01:02:33;0.40;;;0.40;;
16531;SDS011;66872;63.142;14.482;2023-02-02T01:04:59;0.47;;;0.47;;
16531;SDS011;66872;63.142;14.482;2023-02-02T01:07:25;0.50;;;0.50;;
16531;SDS011;66872;63.142;14.482;2023-02-02T01:09:51;0.30;;;0.30;;
16531;SDS011;66872;63.142;14.482;2023-02-02T01:12:17;0.43;;;0.43;;
16531;SDS011;66872;63.142;14.482;2023-02-02T01:14:43;0.40;;;0.40;;
16531;SDS011;66872;63.142;14.482;2023-02-02T01:17:08;0.40;;;0.40;;
16531;SDS011;66872;63.142;14.482;2023-02-02T01:19:34;0.32;;;0.32;;
16531;SDS011;66872;63.142;14.482;2023-02-02T01:22:00;0.45;;;0.43;;
16531;SDS011;66872;63.142;14.482;2023-02-02T01:24:25;0.50;;;0.50;;
16531;SDS011;66872;63.142;14.482;2023-02-02T01:26:51;0.28;;;0.28;;
16531;SDS011;66872;63.142;14.482;2023-02-02T01:29:17;0.60;;;0.60;;
16531;SDS011;66872;63.142;14.482;2023-02-02T01:31:42;0.38;;;0.38;;
16531;SDS011;66872;63.142;14.482;2023-02-02T01:34:08;0.40;;;0.40;;
16531;SDS011;66872;63.142;14.482;2023-02-02T01:36:34;0.50;;;0.50;;
16531;SDS011;66872;63.142;14.482;2023-02-02T01:39:00;0.38;;;0.38;;
16531;SDS011;66872;63.142;14.482;2023-02-02T01:41:26;0.40;;;0.40;;
16531;SDS011;66872;63.142;14.482;2023-02-02T01:43:57;0.20;;;0.20;;
16531;SDS011;66872;63.142;14.482;2023-02-02T01:46:25;0.30;;;0.30;;
16531;SDS011;66872;63.142;14.482;2023-02-02T01:49:11;0.30;;;0.30;;
16531;SDS011;66872;63.142;14.482;2023-02-02T01:54:17;0.47;;;0.47;;
16531;SDS011;66872;63.142;14.482;2023-02-02T01:56:54;0.32;;;0.32;;
16531;SDS011;66872;63.142;14.482;2023-02-02T01:59:24;0.20;;;0.20;;
16531;SDS011;66872;63.142;14.482;2023-02-02T02:01:51;0.30;;;0.30;;
16531;SDS011;66872;63.142;14.482;2023-02-02T02:04:19;0.30;;;0.30;;
16531;SDS011;66872;63.142;14.482;2023-02-02T02:06:46;0.25;;;0.25;;
16531;SDS011;66872;63.142;14.482;2023-02-02T02:09:12;0.30;;;0.30;;
16531;SDS011;66872;63.142;14.482;2023-02-02T02:11:38;0.40;;;0.40;;
16531;SDS011;66872;63.142;14.482;2023-02-02T02:14:05;0.35;;;0.35;;
16531;SDS011;66872;63.142;14.482;2023-02-02T02:17:05;0.52;;;0.40;;
16531;SDS011;66872;63.142;14.482;2023-02-02T02:31:58;0.20;;;0.20;;
16531;SDS011;66872;63.142;14.482;2023-02-02T02:37:27;0.30;;;0.30;;
16531;SDS011;66872;63.142;14.482;2023-02-02T02:40:01;0.73;;;0.30;;
16531;SDS011;66872;63.142;14.482;2023-02-02T02:42:29;0.30;;;0.30;;
16531;SDS011;66872;63.142;14.482;2023-02-02T02:44:58;0.50;;;0.50;;
16531;SDS011;66872;63.142;14.482;2023-02-02T02:47:27;0.30;;;0.30;;
16531;SDS011;66872;63.142;14.482;2023-02-02T02:49:55;0.20;;;0.20;;
16531;SDS011;66872;63.142;14.482;2023-02-02T02:52:21;0.30;;;0.30;;
16531;SDS011;66872;63.142;14.482;2023-02-02T02:54:48;0.30;;;0.30;;
16531;SDS011;66872;63.142;14.482;2023-02-02T03:05:22;0.30;;;0.30;;
16531;SDS011;66872;63.142;14.482;2023-02-02T03:08:01;0.30;;;0.30;;
16531;SDS011;66872;63.142;14.482;2023-02-02T03:10:43;0.30;;;0.30;;
16531;SDS011;66872;63.142;14.482;2023-02-02T03:13:11;0.43;;;0.43;;
16531;SDS011;66872;63.142;14.482;2023-02-02T03:15:45;0.40;;;0.40;;
16531;SDS011;66872;63.142;14.482;2023-02-02T03:18:16;0.32;;;0.32;;
16531;SDS011;66872;63.142;14.482;2023-02-02T03:20:44;0.22;;;0.22;;
16531;SDS011;66872;63.142;14.482;2023-02-02T03:23:10;0.30;;;0.30;;
16531;SDS011;66872;63.142;14.482;2023-02-02T03:25:36;0.30;;;0.30;;
16531;SDS011;66872;63.142;14.482;2023-02-02T03:28:02;0.22;;;0.22;;
16531;SDS011;66872;63.142;14.482;2023-02-02T03:30:28;0.30;;;0.30;;
16531;SDS011;66872;63.142;14.482;2023-02-02T03:32:55;0.28;;;0.28;;
16531;SDS011;66872;63.142;14.482;2023-02-02T03:35:21;0.30;;;0.30;;
16531;SDS011;66872;63.142;14.482;2023-02-02T03:37:46;0.40;;;0.40;;
16531;SDS011;66872;63.142;14.482;2023-02-02T03:40:12;0.20;;;0.20;;
16531;SDS011;66872;63.142;14.482;2023-02-02T03:42:39;0.30;;;0.30;;
16531;SDS011;66872;63.142;14.482;2023-02-02T03:45:04;0.30;;;0.30;;
16531;SDS011;66872;63.142;14.482;2023-02-02T03:47:30;0.40;;;0.40;;
16531;SDS011;66872;63.142;14.482;2023-02-02T03:49:56;0.30;;;0.30;;
16531;SDS011;66872;63.142;14.482;2023-02-02T03:52:22;0.30;;;0.30;;
16531;SDS011;66872;63.142;14.482;2023-02-02T03:54:49;0.30;;;0.30;;
16531;SDS011;66872;63.142;14.482;2023-02-02T03:57:15;0.40;;;0.40;;
16531;SDS011;66872;63.142;14.482;2023-02-02T03:59:40;0.20;;;0.20;;
16531;SDS011;66872;63.142;14.482;2023-02-02T04:02:06;0.40;;;0.40;;
16531;SDS011;66872;63.142;14.482;2023-02-02T04:04:32;0.17;;;0.17;;
16531;SDS011;66872;63.142;14.482;2023-02-02T04:06:57;0.30;;;0.30;;
16531;SDS011;66872;63.142;14.482;2023-02-02T04:09:23;0.38;;;0.38;;
16531;SDS011;66872;63.142;14.482;2023-02-02T04:11:49;0.40;;;0.40;;
16531;SDS011;66872;63.142;14.482;2023-02-02T04:14:15;0.30;;;0.30;;
16531;SDS011;66872;63.142;14.482;2023-02-02T04:16:41;0.30;;;0.30;;
16531;SDS011;66872;63.142;14.482;2023-02-02T04:19:06;0.20;;;0.20;;
16531;SDS011;66872;63.142;14.482;2023-02-02T04:21:32;0.28;;;0.28;;
16531;SDS011;66872;63.142;14.482;2023-02-02T04:23:58;0.20;;;0.20;;
16531;SDS011;66872;63.142;14.482;2023-02-02T04:26:24;0.40;;;0.40;;
16531;SDS011;66872;63.142;14.482;2023-02-02T04:28:51;0.28;;;0.28;;
16531;SDS011;66872;63.142;14.482;2023-02-02T04:31:17;0.30;;;0.30;;
16531;SDS011;66872;63.142;14.482;2023-02-02T04:33:43;0.40;;;0.40;;
16531;SDS011;66872;63.142;14.482;2023-02-02T04:36:09;0.20;;;0.20;;
16531;SDS011;66872;63.142;14.482;2023-02-02T04:38:35;0.22;;;0.22;;
16531;SDS011;66872;63.142;14.482;2023-02-02T04:41:07;0.30;;;0.30;;
16531;SDS011;66872;63.142;14.482;2023-02-02T04:43:35;0.30;;;0.30;;
16531;SDS011;66872;63.142;14.482;2023-02-02T04:46:02;0.30;;;0.30;;
16531;SDS011;66872;63.142;14.482;2023-02-02T04:48:28;0.32;;;0.32;;
16531;SDS011;66872;63.142;14.482;2023-02-02T04:50:58;0.30;;;0.30;;
16531;SDS011;66872;63.142;14.482;2023-02-02T04:53:24;0.30;;;0.30;;
16531;SDS011;66872;63.142;14.482;2023-02-02T04:55:50;0.30;;;0.30;;
16531;SDS011;66872;63.142;14.482;2023-02-02T04:58:16;0.50;;;0.50;;
16531;SDS011;66872;63.142;14.482;2023-02-02T05:00:42;1.08;;;0.40;;
16531;SDS011;66872;63.142;14.482;2023-02-02T05:03:08;0.30;;;0.30;;
16531;SDS011;66872;63.142;14.482;2023-02-02T05:05:33;0.32;;;0.32;;
16531;SDS011;66872;63.142;14.482;2023-02-02T05:07:59;0.32;;;0.32;;
16531;SDS011;66872;63.142;14.482;2023-02-02T05:10:25;0.28;;;0.28;;
16531;SDS011;66872;63.142;14.482;2023-02-02T05:12:51;0.30;;;0.30;;
16531;SDS011;66872;63.142;14.482;2023-02-02T05:15:17;0.30;;;0.30;;
16531;SDS011;66872;63.142;14.482;2023-02-02T05:17:45;0.40;;;0.40;;
16531;SDS011;66872;63.142;14.482;2023-02-02T05:20:11;0.30;;;0.30;;
16531;SDS011;66872;63.142;14.482;2023-02-02T05:22:37;0.30;;;0.30;;
16531;SDS011;66872;63.142;14.482;2023-02-02T05:25:03;0.20;;;0.20;;
16531;SDS011;66872;63.142;14.482;2023-02-02T05:27:30;0.40;;;0.40;;
16531;SDS011;66872;63.142;14.482;2023-02-02T05:29:56;0.40;;;0.40;;
16531;SDS011;66872;63.142;14.482;2023-02-02T05:32:21;0.40;;;0.40;;
16531;SDS011;66872;63.142;14.482;2023-02-02T05:34:47;0.35;;;0.35;;
16531;SDS011;66872;63.142;14.482;2023-02-02T05:37:13;0.40;;;0.40;;
16531;SDS011;66872;63.142;14.482;2023-02-02T05:39:38;0.40;;;0.40;;
16531;SDS011;66872;63.142;14.482;2023-02-02T05:42:04;0.30;;;0.30;;
16531;SDS011;66872;63.142;14.482;2023-02-02T05:44:30;0.30;;;0.30;;
16531;SDS011;66872;63.142;14.482;2023-02-02T05:46:55;0.35;;;0.35;;
16531;SDS011;66872;63.142;14.482;2023-02-02T05:49:21;0.40;;;0.40;;
16531;SDS011;66872;63.142;14.482;2023-02-02T05:51:47;1.20;;;0.40;;
16531;SDS011;66872;63.142;14.482;2023-02-02T05:54:15;0.30;;;0.30;;
16531;SDS011;66872;63.142;14.482;2023-02-02T05:56:45;0.45;;;0.45;;
16531;SDS011;66872;63.142;14.482;2023-02-02T05:59:14;0.40;;;0.40;;
16531;SDS011;66872;63.142;14.482;2023-02-02T06:01:41;0.60;;;0.50;;
16531;SDS011;66872;63.142;14.482;2023-02-02T06:04:08;0.50;;;0.50;;
16531;SDS011;66872;63.142;14.482;2023-02-02T06:06:33;2.15;;;0.57;;
16531;SDS011;66872;63.142;14.482;2023-02-02T06:08:59;0.95;;;0.60;;
16531;SDS011;66872;63.142;14.482;2023-02-02T06:11:26;0.68;;;0.65;;
16531;SDS011;66872;63.142;14.482;2023-02-02T06:13:51;0.50;;;0.50;;
16531;SDS011;66872;63.142;14.482;2023-02-02T06:16:17;1.27;;;0.60;;
16531;SDS011;66872;63.142;14.482;2023-02-02T06:18:43;1.15;;;0.98;;
16531;SDS011;66872;63.142;14.482;2023-02-02T06:21:09;1.40;;;1.00;;
16531;SDS011;66872;63.142;14.482;2023-02-02T06:23:36;1.75;;;0.90;;
16531;SDS011;66872;63.142;14.482;2023-02-02T06:26:02;2.08;;;1.30;;
16531;SDS011;66872;63.142;14.482;2023-02-02T06:28:31;1.90;;;1.10;;
16531;SDS011;66872;63.142;14.482;2023-02-02T06:31:02;1.98;;;1.33;;
16531;SDS011;66872;63.142;14.482;2023-02-02T06:33:28;1.08;;;0.70;;
16531;SDS011;66872;63.142;14.482;2023-02-02T06:35:57;2.63;;;0.88;;
16531;SDS011;66872;63.142;14.482;2023-02-02T06:38:25;1.33;;;0.90;;
16531;SDS011;66872;63.142;14.482;2023-02-02T06:40:51;0.75;;;0.70;;
16531;SDS011;66872;63.142;14.482;2023-02-02T06:43:16;1.33;;;0.75;;
16531;SDS011;66872;63.142;14.482;2023-02-02T06:45:43;1.35;;;0.85;;
16531;SDS011;66872;63.142;14.482;2023-02-02T06:48:09;0.85;;;0.77;;
16531;SDS011;66872;63.142;14.482;2023-02-02T06:50:37;0.75;;;0.75;;
16531;SDS011;66872;63.142;14.482;2023-02-02T06:53:03;0.70;;;0.70;;
16531;SDS011;66872;63.142;14.482;2023-02-02T06:55:30;0.75;;;0.75;;
16531;SDS011;66872;63.142;14.482;2023-02-02T06:57:56;0.80;;;0.70;;
16531;SDS011;66872;63.142;14.482;2023-02-02T07:00:23;0.88;;;0.70;;
16531;SDS011;66872;63.142;14.482;2023-02-02T07:02:49;1.15;;;0.80;;
16531;SDS011;66872;63.142;14.482;2023-02-02T07:05:15;1.17;;;0.85;;
16531;SDS011;66872;63.142;14.482;2023-02-02T07:07:43;1.35;;;0.80;;
16531;SDS011;66872;63.142;14.482;2023-02-02T07:10:09;1.48;;;0.70;;
16531;SDS011;66872;63.142;14.482;2023-02-02T07:12:36;1.02;;;0.90;;
16531;SDS011;66872;63.142;14.482;2023-02-02T07:15:02;0.73;;;0.73;;
16531;SDS011;66872;63.142;14.482;2023-02-02T07:17:28;0.60;;;0.50;;
16531;SDS011;66872;63.142;14.482;2023-02-02T07:19:53;0.50;;;0.50;;
16531;SDS011;66872;63.142;14.482;2023-02-02T07:22:19;0.60;;;0.60;;
16531;SDS011;66872;63.142;14.482;2023-02-02T07:24:45;0.85;;;0.82;;
16531;SDS011;66872;63.142;14.482;2023-02-02T07:27:11;0.88;;;0.77;;
16531;SDS011;66872;63.142;14.482;2023-02-02T07:29:37;0.73;;;0.73;;
16531;SDS011;66872;63.142;14.482;2023-02-02T07:32:03;0.50;;;0.50;;
16531;SDS011;66872;63.142;14.482;2023-02-02T07:34:29;0.50;;;0.50;;
16531;SDS011;66872;63.142;14.482;2023-02-02T07:36:54;0.57;;;0.50;;
16531;SDS011;66872;63.142;14.482;2023-02-02T07:39:21;0.45;;;0.45;;
16531;SDS011;66872;63.142;14.482;2023-02-02T07:41:47;0.80;;;0.57;;
16531;SDS011;66872;63.142;14.482;2023-02-02T07:44:13;0.60;;;0.60;;
16531;SDS011;66872;63.142;14.482;2023-02-02T07:46:42;0.55;;;0.55;;
16531;SDS011;66872;63.142;14.482;2023-02-02T07:49:13;0.57;;;0.57;;
16531;SDS011;66872;63.142;14.482;2023-02-02T07:51:40;0.60;;;0.60;;
16531;SDS011;66872;63.142;14.482;2023-02-02T07:54:07;0.50;;;0.50;;
16531;SDS011;66872;63.142;14.482;2023-02-02T07:56:33;0.32;;;0.32;;
16531;SDS011;66872;63.142;14.482;2023-02-02T07:58:59;0.60;;;0.52;;
16531;SDS011;66872;63.142;14.482;2023-02-02T08:01:25;0.60;;;0.60;;
16531;SDS011;66872;63.142;14.482;2023-02-02T08:03:52;0.70;;;0.70;;
16531;SDS011;66872;63.142;14.482;2023-02-02T08:06:21;0.40;;;0.40;;
16531;SDS011;66872;63.142;14.482;2023-02-02T08:09:06;0.50;;;0.50;;
16531;SDS011;66872;63.142;14.482;2023-02-02T08:11:32;0.70;;;0.70;;
16531;SDS011;66872;63.142;14.482;2023-02-02T08:14:00;0.70;;;0.70;;
16531;SDS011;66872;63.142;14.482;2023-02-02T08:16:27;0.40;;;0.40;;
16531;SDS011;66872;63.142;14.482;2023-02-02T08:18:54;0.38;;;0.38;;
16531;SDS011;66872;63.142;14.482;2023-02-02T08:21:20;0.50;;;0.50;;
16531;SDS011;66872;63.142;14.482;2023-02-02T08:23:46;0.52;;;0.52;;
16531;SDS011;66872;63.142;14.482;2023-02-02T08:26:16;0.55;;;0.55;;
16531;SDS011;66872;63.142;14.482;2023-02-02T08:28:57;0.65;;;0.65;;
16531;SDS011;66872;63.142;14.482;2023-02-02T08:31:31;0.60;;;0.60;;
16531;SDS011;66872;63.142;14.482;2023-02-02T08:33:59;0.60;;;0.60;;
16531;SDS011;66872;63.142;14.482;2023-02-02T08:36:25;1.60;;;0.63;;
16531;SDS011;66872;63.142;14.482;2023-02-02T08:38:52;0.50;;;0.50;;
16531;SDS011;66872;63.142;14.482;2023-02-02T08:41:19;0.40;;;0.40;;
16531;SDS011;66872;63.142;14.482;2023-02-02T08:43:46;0.45;;;0.45;;
16531;SDS011;66872;63.142;14.482;2023-02-02T08:46:13;0.52;;;0.52;;
16531;SDS011;66872;63.142;14.482;2023-02-02T08:48:40;0.63;;;0.63;;
16531;SDS011;66872;63.142;14.482;2023-02-02T08:51:06;1.42;;;0.60;;
16531;SDS011;66872;63.142;14.482;2023-02-02T08:53:34;0.40;;;0.40;;
16531;SDS011;66872;63.142;14.482;2023-02-02T08:56:04;1.77;;;0.75;;
16531;SDS011;66872;63.142;14.482;2023-02-02T08:58:31;0.93;;;0.80;;
16531;SDS011;66872;63.142;14.482;2023-02-02T09:01:10;0.60;;;0.60;;
16531;SDS011;66872;63.142;14.482;2023-02-02T09:03:40;0.60;;;0.60;;
16531;SDS011;66872;63.142;14.482;2023-02-02T09:06:07;1.00;;;0.80;;
16531;SDS011;66872;63.142;14.482;2023-02-02T09:08:36;0.40;;;0.40;;
16531;SDS011;66872;63.142;14.482;2023-02-02T09:11:03;0.68;;;0.68;;
16531;SDS011;66872;63.142;14.482;2023-02-02T09:13:30;1.02;;;0.80;;
16531;SDS011;66872;63.142;14.482;2023-02-02T09:16:02;0.70;;;0.70;;
16531;SDS011;66872;63.142;14.482;2023-02-02T09:18:29;0.63;;;0.63;;
16531;SDS011;66872;63.142;14.482;2023-02-02T09:20:59;1.35;;;0.70;;
16531;SDS011;66872;63.142;14.482;2023-02-02T09:23:28;0.82;;;0.77;;
16531;SDS011;66872;63.142;14.482;2023-02-02T09:26:09;0.73;;;0.73;;
16531;SDS011;66872;63.142;14.482;2023-02-02T09:28:36;0.73;;;0.73;;
16531;SDS011;66872;63.142;14.482;2023-02-02T09:31:03;0.73;;;0.73;;
16531;SDS011;66872;63.142;14.482;2023-02-02T09:33:29;0.70;;;0.70;;
16531;SDS011;66872;63.142;14.482;2023-02-02T09:35:55;0.98;;;0.80;;
16531;SDS011;66872;63.142;14.482;2023-02-02T09:38:29;1.08;;;0.73;;
16531;SDS011;66872;63.142;14.482;2023-02-02T09:40:54;0.80;;;0.80;;
16531;SDS011;66872;63.142;14.482;2023-02-02T09:46:28;0.77;;;0.77;;
16531;SDS011;66872;63.142;14.482;2023-02-02T09:49:18;1.02;;;0.90;;
16531;SDS011;66872;63.142;14.482;2023-02-02T09:51:58;0.60;;;0.60;;
16531;SDS011;66872;63.142;14.482;2023-02-02T09:54:33;0.77;;;0.77;;
16531;SDS011;66872;63.142;14.482;2023-02-02T09:57:04;0.70;;;0.70;;
16531;SDS011;66872;63.142;14.482;2023-02-02T09:59:40;0.75;;;0.75;;
16531;SDS011;66872;63.142;14.482;2023-02-02T10:02:23;0.90;;;0.85;;
16531;SDS011;66872;63.142;14.482;2023-02-02T10:05:00;0.80;;;0.80;;
16531;SDS011;66872;63.142;14.482;2023-02-02T10:07:34;0.65;;;0.65;;
16531;SDS011;66872;63.142;14.482;2023-02-02T10:10:25;0.80;;;0.80;;
16531;SDS011;66872;63.142;14.482;2023-02-02T10:12:58;0.68;;;0.68;;
16531;SDS011;66872;63.142;14.482;2023-02-02T10:15:38;0.70;;;0.70;;
16531;SDS011;66872;63.142;14.482;2023-02-02T10:21:05;0.80;;;0.80;;
16531;SDS011;66872;63.142;14.482;2023-02-02T10:23:36;0.80;;;0.75;;
16531;SDS011;66872;63.142;14.482;2023-02-02T10:26:22;1.15;;;0.77;;
16531;SDS011;66872;63.142;14.482;2023-02-02T10:32:09;0.70;;;0.70;;
16531;SDS011;66872;63.142;14.482;2023-02-02T10:34:58;0.70;;;0.70;;
16531;SDS011;66872;63.142;14.482;2023-02-02T10:37:35;0.75;;;0.75;;
16531;SDS011;66872;63.142;14.482;2023-02-02T10:45:56;0.82;;;0.80;;
16531;SDS011;66872;63.142;14.482;2023-02-02T10:48:25;0.80;;;0.80;;
16531;SDS011;66872;63.142;14.482;2023-02-02T10:50:56;0.70;;;0.70;;
16531;SDS011;66872;63.142;14.482;2023-02-02T10:53:27;0.70;;;0.70;;
16531;SDS011;66872;63.142;14.482;2023-02-02T10:55:58;0.80;;;0.80;;
16531;SDS011;66872;63.142;14.482;2023-02-02T10:59:16;0.75;;;0.75;;
16531;SDS011;66872;63.142;14.482;2023-02-02T11:01:16;0.90;;;0.80;;
16531;SDS011;66872;63.142;14.482;2023-02-02T11:03:46;0.55;;;0.55;;
16531;SDS011;66872;63.142;14.482;2023-02-02T11:06:12;0.75;;;0.73;;
16531;SDS011;66872;63.142;14.482;2023-02-02T11:08:58;0.80;;;0.80;;
16531;SDS011;66872;63.142;14.482;2023-02-02T11:11:26;0.80;;;0.80;;
16531;SDS011;66872;63.142;14.482;2023-02-02T11:16:35;1.00;;;0.90;;
16531;SDS011;66872;63.142;14.482;2023-02-02T11:19:22;1.08;;;0.98;;
16531;SDS011;66872;63.142;14.482;2023-02-02T11:21:54;0.90;;;0.90;;
16531;SDS011;66872;63.142;14.482;2023-02-02T11:24:28;1.20;;;1.10;;
16531;SDS011;66872;63.142;14.482;2023-02-02T11:27:14;1.10;;;0.93;;
16531;SDS011;66872;63.142;14.482;2023-02-02T11:29:50;1.10;;;1.00;;
16531;SDS011;66872;63.142;14.482;2023-02-02T11:32:25;1.02;;;1.00;;
16531;SDS011;66872;63.142;14.482;2023-02-02T11:37:29;0.73;;;0.73;;
16531;SDS011;66872;63.142;14.482;2023-02-02T11:40:16;0.90;;;0.90;;
16531;SDS011;66872;63.142;14.482;2023-02-02T11:42:52;1.20;;;1.10;;
16531;SDS011;66872;63.142;14.482;2023-02-02T11:45:26;1.27;;;1.02;;
16531;SDS011;66872;63.142;14.482;2023-02-02T11:48:06;1.10;;;1.00;;
16531;SDS011;66872;63.142;14.482;2023-02-02T11:50:37;1.10;;;1.00;;
16531;SDS011;66872;63.142;14.482;2023-02-02T11:53:03;1.88;;;1.05;;
16531;SDS011;66872;63.142;14.482;2023-02-02T11:55:29;0.88;;;0.88;;
16531;SDS011;66872;63.142;14.482;2023-02-02T12:00:53;0.93;;;0.77;;
16531;SDS011;66872;63.142;14.482;2023-02-02T12:05:55;1.20;;;1.08;;
16531;SDS011;66872;63.142;14.482;2023-02-02T12:08:21;0.85;;;0.85;;
16531;SDS011;66872;63.142;14.482;2023-02-02T12:10:55;0.98;;;0.93;;
16531;SDS011;66872;63.142;14.482;2023-02-02T12:24:30;0.80;;;0.80;;
16531;SDS011;66872;63.142;14.482;2023-02-02T12:27:14;1.40;;;0.90;;
16531;SDS011;66872;63.142;14.482;2023-02-02T12:32:45;0.82;;;0.82;;
16531;SDS011;66872;63.142;14.482;2023-02-02T12:38:18;0.85;;;0.85;;
16531;SDS011;66872;63.142;14.482;2023-02-02T12:41:16;0.90;;;0.90;;
16531;SDS011;66872;63.142;14.482;2023-02-02T12:44:06;0.82;;;0.80;;
16531;SDS011;66872;63.142;14.482;2023-02-02T12:46:45;0.73;;;0.73;;
16531;SDS011;66872;63.142;14.482;2023-02-02T12:49:38;0.90;;;0.90;;
16531;SDS011;66872;63.142;14.482;2023-02-02T12:52:23;0.80;;;0.80;;
16531;SDS011;66872;63.142;14.482;2023-02-02T13:08:29;1.13;;;1.00;;
16531;SDS011;66872;63.142;14.482;2023-02-02T13:10:59;0.80;;;0.80;;
16531;SDS011;66872;63.142;14.482;2023-02-02T13:13:31;0.90;;;0.90;;
16531;SDS011;66872;63.142;14.482;2023-02-02T13:16:05;0.80;;;0.80;;
16531;SDS011;66872;63.142;14.482;2023-02-02T13:18:41;0.95;;;0.82;;
16531;SDS011;66872;63.142;14.482;2023-02-02T13:21:13;0.75;;;0.75;;
16531;SDS011;66872;63.142;14.482;2023-02-02T13:23:44;0.70;;;0.70;;
16531;SDS011;66872;63.142;14.482;2023-02-02T13:26:20;1.70;;;0.90;;
16531;SDS011;66872;63.142;14.482;2023-02-02T13:28:57;0.90;;;0.90;;
16531;SDS011;66872;63.142;14.482;2023-02-02T13:31:36;3.53;;;1.00;;
16531;SDS011;66872;63.142;14.482;2023-02-02T13:34:22;0.70;;;0.70;;
16531;SDS011;66872;63.142;14.482;2023-02-02T13:36:56;1.17;;;1.08;;
16531;SDS011;66872;63.142;14.482;2023-02-02T13:39:32;1.48;;;1.08;;
16531;SDS011;66872;63.142;14.482;2023-02-02T13:42:04;0.82;;;0.82;;
16531;SDS011;66872;63.142;14.482;2023-02-02T13:44:42;0.70;;;0.70;;
16531;SDS011;66872;63.142;14.482;2023-02-02T13:47:24;0.80;;;0.80;;
16531;SDS011;66872;63.142;14.482;2023-02-02T13:50:01;1.10;;;1.00;;
16531;SDS011;66872;63.142;14.482;2023-02-02T13:55:19;1.00;;;0.90;;
16531;SDS011;66872;63.142;14.482;2023-02-02T13:58:22;1.85;;;1.00;;
16531;SDS011;66872;63.142;14.482;2023-02-02T14:01:03;1.02;;;1.00;;
16531;SDS011;66872;63.142;14.482;2023-02-02T14:03:34;1.05;;;0.95;;
16531;SDS011;66872;63.142;14.482;2023-02-02T14:08:34;0.93;;;0.93;;
16531;SDS011;66872;63.142;14.482;2023-02-02T14:11:02;1.10;;;1.00;;
16531;SDS011;66872;63.142;14.482;2023-02-02T14:16:47;0.77;;;0.77;;
16531;SDS011;66872;63.142;14.482;2023-02-02T14:34:27;0.80;;;0.80;;
16531;SDS011;66872;63.142;14.482;2023-02-02T14:39:33;1.00;;;0.98;;
16531;SDS011;66872;63.142;14.482;2023-02-02T14:42:16;0.73;;;0.73;;
16531;SDS011;66872;63.142;14.482;2023-02-02T14:47:45;0.82;;;0.82;;
16531;SDS011;66872;63.142;14.482;2023-02-02T14:50:14;0.77;;;0.77;;
16531;SDS011;66872;63.142;14.482;2023-02-02T14:52:44;1.00;;;0.90;;
16531;SDS011;66872;63.142;14.482;2023-02-02T14:55:20;0.88;;;0.88;;
16531;SDS011;66872;63.142;14.482;2023-02-02T14:57:55;0.80;;;0.80;;
16531;SDS011;66872;63.142;14.482;2023-02-02T15:00:25;0.80;;;0.80;;
16531;SDS011;66872;63.142;14.482;2023-02-02T15:02:55;1.77;;;0.85;;
16531;SDS011;66872;63.142;14.482;2023-02-02T15:07:53;0.70;;;0.70;;
16531;SDS011;66872;63.142;14.482;2023-02-02T15:11:03;0.95;;;0.93;;
16531;SDS011;66872;63.142;14.482;2023-02-02T15:13:24;0.55;;;0.55;;
16531;SDS011;66872;63.142;14.482;2023-02-02T15:16:06;0.70;;;0.70;;
16531;SDS011;66872;63.142;14.482;2023-02-02T15:18:40;0.85;;;0.85;;
16531;SDS011;66872;63.142;14.482;2023-02-02T15:21:09;1.02;;;1.00;;
16531;SDS011;66872;63.142;14.482;2023-02-02T15:23:41;0.77;;;0.77;;
16531;SDS011;66872;63.142;14.482;2023-02-02T15:26:20;0.90;;;0.90;;
16531;SDS011;66872;63.142;14.482;2023-02-02T15:36:54;0.63;;;0.63;;
16531;SDS011;66872;63.142;14.482;2023-02-02T15:39:40;0.80;;;0.80;;
16531;SDS011;66872;63.142;14.482;2023-02-02T15:47:58;1.65;;;1.00;;
16531;SDS011;66872;63.142;14.482;2023-02-02T15:50:25;0.70;;;0.70;;
16531;SDS011;66872;63.142;14.482;2023-02-02T15:52:52;0.70;;;0.70;;
16531;SDS011;66872;63.142;14.482;2023-02-02T15:55:29;0.90;;;0.90;;
16531;SDS011;66872;63.142;14.482;2023-02-02T15:58:00;0.98;;;0.98;;
16531;SDS011;66872;63.142;14.482;2023-02-02T16:03:18;0.77;;;0.77;;
16531;SDS011;66872;63.142;14.482;2023-02-02T16:05:52;0.80;;;0.80;;
16531;SDS011;66872;63.142;14.482;2023-02-02T16:08:22;0.80;;;0.80;;
16531;SDS011;66872;63.142;14.482;2023-02-02T16:11:00;0.90;;;0.90;;
16531;SDS011;66872;63.142;14.482;2023-02-02T16:13:39;0.88;;;0.88;;
16531;SDS011;66872;63.142;14.482;2023-02-02T16:16:21;0.90;;;0.90;;
16531;SDS011;66872;63.142;14.482;2023-02-02T16:21:33;0.90;;;0.90;;
16531;SDS011;66872;63.142;14.482;2023-02-02T16:24:05;0.85;;;0.85;;
16531;SDS011;66872;63.142;14.482;2023-02-02T16:26:38;1.00;;;0.90;;
16531;SDS011;66872;63.142;14.482;2023-02-02T16:29:04;1.02;;;1.00;;
16531;SDS011;66872;63.142;14.482;2023-02-02T16:31:30;0.80;;;0.80;;
16531;SDS011;66872;63.142;14.482;2023-02-02T16:33:56;0.93;;;0.93;;
16531;SDS011;66872;63.142;14.482;2023-02-02T16:36:25;0.80;;;0.80;;
16531;SDS011;66872;63.142;14.482;2023-02-02T16:38:54;0.98;;;0.93;;
16531;SDS011;66872;63.142;14.482;2023-02-02T16:41:29;0.77;;;0.77;;
16531;SDS011;66872;63.142;14.482;2023-02-02T16:47:06;1.10;;;1.02;;
16531;SDS011;66872;63.142;14.482;2023-02-02T16:52:48;0.90;;;0.90;;
16531;SDS011;66872;63.142;14.482;2023-02-02T16:55:17;1.08;;;0.95;;
16531;SDS011;66872;63.142;14.482;2023-02-02T16:57:45;1.17;;;1.08;;
16531;SDS011;66872;63.142;14.482;2023-02-02T17:00:31;0.90;;;0.90;;
16531;SDS011;66872;63.142;14.482;2023-02-02T17:03:02;1.20;;;1.10;;
16531;SDS011;66872;63.142;14.482;2023-02-02T17:05:32;1.00;;;1.00;;
16531;SDS011;66872;63.142;14.482;2023-02-02T17:08:09;0.95;;;0.95;;
16531;SDS011;66872;63.142;14.482;2023-02-02T17:10:35;1.00;;;1.00;;